createdAt,value
2023-03-06T00:00:34.485Z,5.43
2023-03-06T00:03:16.159Z,6.00
2023-03-06T00:05:44.024Z,5.15
2023-03-06T00:08:12.270Z,5.82
2023-03-06T00:10:40.383Z,5.85
2023-03-06T00:13:11.622Z,5.63
2023-03-06T00:15:38.939Z,5.00
2023-03-06T00:18:06.951Z,5.03
2023-03-06T00:20:35.499Z,4.90
2023-03-06T00:23:03.034Z,5.18
2023-03-06T00:25:30.387Z,5.28
2023-03-06T00:27:58.065Z,5.25
2023-03-06T00:30:25.683Z,5.53
2023-03-06T00:32:53.616Z,4.90
2023-03-06T00:35:20.975Z,5.45
2023-03-06T00:37:48.808Z,4.82
2023-03-06T00:40:20.362Z,5.57
2023-03-06T00:42:47.987Z,5.38
2023-03-06T00:45:15.653Z,5.07
2023-03-06T00:47:43.856Z,4.93
2023-03-06T00:50:11.599Z,5.10
2023-03-06T00:52:39.515Z,5.00
2023-03-06T00:55:10.205Z,4.78
2023-03-06T00:57:38.104Z,5.32
2023-03-06T01:00:07.941Z,5.28
2023-03-06T01:02:35.561Z,4.72
2023-03-06T01:05:03.068Z,4.72
2023-03-06T01:07:33.932Z,5.20
2023-03-06T01:10:01.127Z,4.70
2023-03-06T01:12:28.667Z,4.88
2023-03-06T01:14:55.924Z,4.68
2023-03-06T01:17:24.025Z,5.25
2023-03-06T01:19:51.211Z,4.93
2023-03-06T01:22:18.992Z,4.60
2023-03-06T01:24:46.243Z,5.18
2023-03-06T01:27:13.814Z,4.80
2023-03-06T01:29:41.096Z,4.43
2023-03-06T01:32:08.748Z,4.90
2023-03-06T01:34:36.062Z,4.65
2023-03-06T01:37:03.568Z,5.15
2023-03-06T01:39:31.589Z,4.80
2023-03-06T01:41:59.128Z,4.60
2023-03-06T01:44:26.539Z,4.75
2023-03-06T01:46:55.051Z,4.40
2023-03-06T01:49:30.296Z,5.00
2023-03-06T01:52:24.102Z,4.70
2023-03-06T01:55:01.784Z,4.70
2023-03-06T01:57:35.114Z,5.32
2023-03-06T02:00:08.891Z,5.03
2023-03-06T02:02:37.488Z,4.78
2023-03-06T02:05:05.957Z,4.80
2023-03-06T02:07:34.987Z,5.35
2023-03-06T02:10:02.433Z,4.93
2023-03-06T02:12:30.333Z,4.85
2023-03-06T02:14:58.648Z,5.13
2023-03-06T02:17:27.564Z,5.75
2023-03-06T02:20:13.353Z,4.93
2023-03-06T02:22:49.902Z,4.90
2023-03-06T02:25:32.778Z,4.82
2023-03-06T02:28:01.170Z,5.30
2023-03-06T02:30:29.909Z,4.82
2023-03-06T02:32:58.328Z,5.45
2023-03-06T02:35:31.720Z,4.72
2023-03-06T02:38:04.635Z,4.63
2023-03-06T02:40:32.130Z,5.03
2023-03-06T02:43:00.043Z,5.05
2023-03-06T02:45:33.778Z,5.68
2023-03-06T02:48:01.333Z,5.43
2023-03-06T02:50:29.075Z,5.32
2023-03-06T02:52:56.606Z,5.20
2023-03-06T02:55:23.903Z,4.90
2023-03-06T02:57:51.854Z,5.47
2023-03-06T03:00:19.716Z,5.72
2023-03-06T03:02:48.184Z,6.15
2023-03-06T03:05:15.689Z,6.18
2023-03-06T03:07:43.771Z,5.60
2023-03-06T03:10:12.304Z,5.63
2023-03-06T03:12:40.432Z,5.78
2023-03-06T03:15:08.855Z,5.55
2023-03-06T03:17:40.965Z,6.07
2023-03-06T03:20:12.491Z,6.30
2023-03-06T03:22:40.245Z,6.15
2023-03-06T03:25:08.619Z,6.03
2023-03-06T03:27:36.092Z,6.30
2023-03-06T03:30:04.418Z,6.10
2023-03-06T03:32:31.998Z,6.18
2023-03-06T03:34:59.433Z,6.72
2023-03-06T03:37:26.951Z,6.25
2023-03-06T03:39:54.300Z,5.75
2023-03-06T03:42:21.898Z,6.38
2023-03-06T03:44:49.902Z,6.00
2023-03-06T03:47:17.504Z,6.18
2023-03-06T03:49:44.872Z,6.57
2023-03-06T03:52:12.332Z,6.47
2023-03-06T03:54:39.570Z,6.63
2023-03-06T03:57:07.183Z,6.68
2023-03-06T03:59:34.419Z,6.95
2023-03-06T04:02:04.708Z,6.80
2023-03-06T04:04:32.170Z,7.18
2023-03-06T04:07:00.573Z,6.70
2023-03-06T04:09:27.981Z,6.60
2023-03-06T04:11:55.860Z,6.68
2023-03-06T04:14:23.212Z,6.13
2023-03-06T04:16:50.800Z,6.45
2023-03-06T04:19:18.168Z,6.10
2023-03-06T04:21:45.714Z,6.70
2023-03-06T04:24:13.147Z,7.00
2023-03-06T04:26:40.639Z,6.97
2023-03-06T04:29:08.052Z,6.75
2023-03-06T04:31:35.679Z,6.47
2023-03-06T04:34:02.942Z,7.07
2023-03-06T04:36:32.911Z,6.88
2023-03-06T04:39:01.115Z,7.03
2023-03-06T04:41:28.940Z,7.45
2023-03-06T04:43:56.374Z,6.88
2023-03-06T04:46:23.904Z,7.32
2023-03-06T04:48:51.223Z,7.10
2023-03-06T04:51:18.794Z,7.25
2023-03-06T04:53:46.925Z,7.13
2023-03-06T04:56:14.446Z,7.03
2023-03-06T04:58:43.387Z,8.05
2023-03-06T05:01:12.035Z,6.68
2023-03-06T05:03:39.321Z,6.88
2023-03-06T05:06:07.198Z,7.03
2023-03-06T05:08:34.475Z,7.03
2023-03-06T05:11:02.904Z,6.90
2023-03-06T05:13:30.168Z,7.22
2023-03-06T05:16:02.887Z,7.20
2023-03-06T05:18:30.389Z,7.60
2023-03-06T05:20:59.900Z,7.60
2023-03-06T05:23:28.729Z,7.82
2023-03-06T05:25:56.963Z,6.68
2023-03-06T05:28:25.897Z,7.05
2023-03-06T05:30:53.437Z,7.65
2023-03-06T05:33:20.876Z,7.45
2023-03-06T05:35:49.032Z,6.93
2023-03-06T05:38:17.136Z,7.07
2023-03-06T05:40:45.457Z,7.20
2023-03-06T05:43:13.016Z,7.38
2023-03-06T05:45:40.979Z,7.10
2023-03-06T05:48:13.542Z,6.90
2023-03-06T05:50:41.094Z,7.15
2023-03-06T05:53:08.408Z,7.55
2023-03-06T05:55:36.715Z,7.03
2023-03-06T05:58:04.142Z,7.20
2023-03-06T06:00:31.765Z,6.80
2023-03-06T06:03:01.279Z,7.93
2023-03-06T06:05:29.441Z,6.47
2023-03-06T06:07:56.751Z,7.28
2023-03-06T06:10:24.319Z,7.05
2023-03-06T06:12:51.604Z,8.00
2023-03-06T06:15:19.111Z,7.30
2023-03-06T06:17:46.869Z,7.40
2023-03-06T06:20:14.824Z,7.95
2023-03-06T06:22:42.272Z,8.02
2023-03-06T06:25:10.108Z,8.35
2023-03-06T06:27:37.395Z,8.55
2023-03-06T06:30:06.591Z,10.13
2023-03-06T06:32:34.525Z,8.82
2023-03-06T06:35:02.153Z,9.93
2023-03-06T06:37:29.636Z,9.82
2023-03-06T06:39:57.357Z,9.95
2023-03-06T06:42:39.013Z,10.13
2023-03-06T06:45:11.245Z,10.32
2023-03-06T06:47:41.283Z,9.57
2023-03-06T06:50:12.918Z,10.10
2023-03-06T06:52:40.444Z,10.48
2023-03-06T06:55:08.764Z,10.40
2023-03-06T06:57:36.076Z,10.77
2023-03-06T07:00:05.432Z,10.52
2023-03-06T07:02:32.889Z,11.07
2023-03-06T07:05:04.713Z,9.82
2023-03-06T07:07:37.551Z,10.05
2023-03-06T07:10:07.748Z,10.30
2023-03-06T07:12:35.288Z,10.45
2023-03-06T07:15:04.800Z,10.00
2023-03-06T07:17:32.018Z,9.95
2023-03-06T07:19:59.932Z,9.93
2023-03-06T07:22:28.147Z,10.02
2023-03-06T07:24:56.628Z,9.55
2023-03-06T07:27:26.062Z,10.15
2023-03-06T07:29:53.585Z,9.52
2023-03-06T07:32:21.064Z,9.75
2023-03-06T07:34:48.996Z,9.93
2023-03-06T07:37:16.436Z,9.82
2023-03-06T07:39:44.664Z,10.00
2023-03-06T07:42:13.936Z,9.02
2023-03-06T07:44:41.519Z,8.93
2023-03-06T07:47:08.880Z,10.30
2023-03-06T07:49:37.300Z,9.45
2023-03-06T07:52:04.811Z,9.75
2023-03-06T07:54:32.657Z,9.88
2023-03-06T07:56:59.990Z,9.02
2023-03-06T07:59:28.855Z,9.25
2023-03-06T08:01:56.932Z,8.73
2023-03-06T08:04:24.440Z,9.45
2023-03-06T08:06:53.460Z,9.35
2023-03-06T08:09:20.964Z,8.80
2023-03-06T08:11:49.364Z,9.18
2023-03-06T08:14:16.913Z,8.65
2023-03-06T08:16:44.254Z,8.73
2023-03-06T08:19:11.833Z,9.30
2023-03-06T08:21:39.045Z,8.63
2023-03-06T08:24:07.566Z,8.93
2023-03-06T08:26:35.732Z,9.20
2023-03-06T08:29:03.731Z,9.10
2023-03-06T08:31:36.226Z,8.93
2023-03-06T08:34:12.529Z,8.38
2023-03-06T08:36:40.091Z,8.88
2023-03-06T08:39:08.674Z,8.65
2023-03-06T08:41:37.173Z,8.07
2023-03-06T08:44:05.412Z,7.80
2023-03-06T08:46:33.987Z,8.40
2023-03-06T08:49:01.902Z,8.35
2023-03-06T08:51:29.212Z,8.93
2023-03-06T08:53:57.978Z,8.13
2023-03-06T08:56:33.652Z,8.00
2023-03-06T08:59:03.839Z,7.78
2023-03-06T09:01:34.669Z,7.80
2023-03-06T09:04:06.435Z,7.72
2023-03-06T09:06:37.384Z,7.55
2023-03-06T09:09:05.919Z,7.40
2023-03-06T09:11:33.725Z,7.55
2023-03-06T09:14:01.496Z,7.40
2023-03-06T09:16:28.915Z,7.63
2023-03-06T09:18:57.782Z,7.68
2023-03-06T09:21:27.209Z,7.75
2023-03-06T09:23:55.242Z,7.07
2023-03-06T09:26:27.996Z,6.95
2023-03-06T09:29:00.568Z,6.97
2023-03-06T09:31:28.310Z,7.60
2023-03-06T09:33:56.724Z,7.47
2023-03-06T09:36:24.028Z,6.57
2023-03-06T09:38:51.570Z,7.10
2023-03-06T09:41:33.348Z,7.38
2023-03-06T09:44:08.594Z,6.82
2023-03-06T09:49:45.486Z,7.30
2023-03-06T09:52:40.714Z,6.70
2023-03-06T09:55:13.331Z,6.65
2023-03-06T09:58:11.338Z,7.00
2023-03-06T10:00:44.323Z,6.88
2023-03-06T10:03:31.019Z,6.25
2023-03-06T10:06:11.371Z,6.82
2023-03-06T10:08:49.960Z,7.05
2023-03-06T10:11:24.851Z,6.88
2023-03-06T10:14:12.107Z,6.38
2023-03-06T10:16:40.243Z,6.40
2023-03-06T10:19:14.370Z,6.22
2023-03-06T10:22:06.132Z,6.45
2023-03-06T10:24:46.359Z,6.85
2023-03-06T10:27:45.810Z,6.45
2023-03-06T10:30:33.859Z,6.22
2023-03-06T10:33:17.367Z,5.90
2023-03-06T10:35:48.205Z,6.15
2023-03-06T10:38:24.788Z,6.03
2023-03-06T10:41:01.215Z,6.15
2023-03-06T10:43:28.715Z,5.60
2023-03-06T10:45:56.089Z,5.82
2023-03-06T10:48:26.620Z,5.95
2023-03-06T10:51:22.250Z,6.22
2023-03-06T10:56:37.039Z,5.55
2023-03-06T10:59:07.239Z,5.50
2023-03-06T11:01:36.036Z,5.38
2023-03-06T11:04:22.678Z,6.00
2023-03-06T11:07:19.820Z,5.60
2023-03-06T11:10:15.645Z,5.05
2023-03-06T11:12:43.774Z,6.00
2023-03-06T11:15:23.341Z,5.75
2023-03-06T11:17:57.569Z,5.93
2023-03-06T11:20:55.600Z,5.25
2023-03-06T11:23:37.081Z,5.63
2023-03-06T11:26:04.935Z,5.43
2023-03-06T11:28:40.793Z,5.22
2023-03-06T11:31:14.072Z,5.30
2023-03-06T11:33:50.188Z,5.50
2023-03-06T11:36:43.876Z,4.93
2023-03-06T11:39:37.074Z,5.53
2023-03-06T11:42:43.121Z,5.63
2023-03-06T11:45:37.141Z,5.10
2023-03-06T11:48:38.088Z,5.50
2023-03-06T11:51:11.211Z,5.75
2023-03-06T11:53:40.118Z,4.95
2023-03-06T11:56:19.324Z,4.68
2023-03-06T11:59:30.193Z,4.90
2023-03-06T12:02:11.975Z,5.10
2023-03-06T12:05:07.328Z,5.10
2023-03-06T12:07:34.623Z,4.93
2023-03-06T12:10:20.228Z,4.90
2023-03-06T12:12:57.144Z,4.60
2023-03-06T12:15:50.310Z,4.38
2023-03-06T12:18:29.723Z,4.70
2023-03-06T12:21:07.141Z,4.65
2023-03-06T12:24:12.539Z,5.40
2023-03-06T12:27:01.686Z,4.43
2023-03-06T12:29:53.621Z,4.43
2023-03-06T12:32:59.683Z,4.50
2023-03-06T12:38:22.492Z,4.30
2023-03-06T12:41:22.822Z,4.00
2023-03-06T12:43:58.592Z,4.72
2023-03-06T12:46:27.998Z,5.15
2023-03-06T12:49:05.364Z,4.78
2023-03-06T12:51:34.375Z,5.00
2023-03-06T12:54:03.244Z,3.65
2023-03-06T12:56:32.269Z,4.75
2023-03-06T12:59:03.394Z,4.65
2023-03-06T13:02:13.254Z,4.53
2023-03-06T13:05:06.243Z,5.05
2023-03-06T13:07:49.083Z,4.20
2023-03-06T13:10:33.688Z,4.60
2023-03-06T13:13:26.525Z,4.10
2023-03-06T13:16:18.639Z,4.43
2023-03-06T13:18:51.349Z,4.72
2023-03-06T13:21:44.303Z,4.40
2023-03-06T13:24:23.529Z,4.10
2023-03-06T13:26:58.388Z,4.05
2023-03-06T13:29:37.732Z,3.80
2023-03-06T13:32:17.026Z,4.13
2023-03-06T13:34:49.958Z,3.90
2023-03-06T13:37:17.475Z,3.80
2023-03-06T13:39:59.905Z,4.25
2023-03-06T13:42:30.529Z,4.22
2023-03-06T13:45:08.903Z,4.00
2023-03-06T13:50:44.399Z,4.65
2023-03-06T13:53:40.734Z,3.80
2023-03-06T13:56:25.140Z,4.47
2023-03-06T13:59:29.681Z,4.47
2023-03-06T14:02:22.609Z,4.03
2023-03-06T14:04:57.901Z,3.80
2023-03-06T14:07:30.904Z,4.20
2023-03-06T14:10:01.144Z,3.78
2023-03-06T14:12:34.024Z,3.67
2023-03-06T14:15:15.760Z,3.78
2023-03-06T14:18:01.934Z,3.72
2023-03-06T14:20:43.861Z,3.72
2023-03-06T14:23:23.379Z,3.92
2023-03-06T14:26:00.784Z,3.70
2023-03-06T14:28:30.822Z,3.60
2023-03-06T14:31:00.359Z,3.40
2023-03-06T14:33:50.308Z,3.75
2023-03-06T14:36:20.823Z,3.90
2023-03-06T14:38:58.189Z,3.88
2023-03-06T14:41:34.542Z,3.53
2023-03-06T14:44:23.147Z,3.40
2023-03-06T14:46:51.986Z,3.97
2023-03-06T14:49:21.710Z,4.00
2023-03-06T14:51:51.976Z,3.60
2023-03-06T14:54:23.417Z,3.60
2023-03-06T14:56:53.577Z,3.28
2023-03-06T14:59:26.537Z,3.22
2023-03-06T15:02:01.046Z,3.30
2023-03-06T15:04:44.387Z,3.35
2023-03-06T15:07:17.643Z,3.50
2023-03-06T15:09:49.240Z,3.60
2023-03-06T15:12:20.865Z,3.53
2023-03-06T15:14:59.012Z,3.13
2023-03-06T15:17:30.750Z,3.47
2023-03-06T15:20:00.266Z,3.50
2023-03-06T15:22:43.441Z,3.00
2023-03-06T15:25:27.282Z,3.28
2023-03-06T15:28:00.557Z,3.30
2023-03-06T15:30:34.461Z,2.83
2023-03-06T15:33:22.043Z,3.58
2023-03-06T15:36:00.788Z,3.63
2023-03-06T15:38:42.351Z,3.40
2023-03-06T15:41:32.374Z,3.50
2023-03-06T15:44:01.580Z,3.38
2023-03-06T15:46:29.747Z,3.63
2023-03-06T15:49:01.111Z,3.97
2023-03-06T15:51:29.881Z,3.70
2023-03-06T15:54:09.866Z,3.50
2023-03-06T15:56:41.747Z,3.83
2023-03-06T15:59:21.787Z,3.58
2023-03-06T16:01:50.556Z,3.72
2023-03-06T16:04:19.796Z,3.90
2023-03-06T16:06:47.162Z,3.90
2023-03-06T16:09:14.713Z,4.00
2023-03-06T16:11:44.773Z,4.20
2023-03-06T16:14:21.303Z,3.80
2023-03-06T16:16:49.918Z,4.20
2023-03-06T16:19:28.201Z,3.60
2023-03-06T16:21:57.366Z,3.50
2023-03-06T16:24:26.251Z,3.53
2023-03-06T16:26:54.880Z,4.00
2023-03-06T16:29:25.887Z,3.42
2023-03-06T16:31:55.453Z,4.40
2023-03-06T16:34:23.516Z,3.35
2023-03-06T16:36:51.469Z,3.60
2023-03-06T16:39:21.762Z,3.35
2023-03-06T16:41:50.482Z,3.40
2023-03-06T16:44:18.821Z,3.35
2023-03-06T16:46:48.763Z,3.80
2023-03-06T16:49:23.829Z,3.67
2023-03-06T16:51:51.770Z,3.10
2023-03-06T16:54:20.235Z,3.50
2023-03-06T16:56:47.519Z,3.58
2023-03-06T16:59:15.059Z,3.42
2023-03-06T17:01:43.368Z,3.20
2023-03-06T17:04:11.321Z,3.60
2023-03-06T17:06:39.667Z,3.13
2023-03-06T17:09:07.559Z,2.90
2023-03-06T17:11:38.513Z,3.70
2023-03-06T17:14:06.932Z,3.20
2023-03-06T17:16:36.469Z,2.95
2023-03-06T17:19:05.471Z,3.15
2023-03-06T17:21:35.344Z,3.13
2023-03-06T17:24:03.734Z,3.40
2023-03-06T17:26:32.726Z,3.67
2023-03-06T17:29:00.303Z,3.38
2023-03-06T17:31:28.713Z,3.10
2023-03-06T17:34:00.483Z,3.00
2023-03-06T17:36:29.016Z,3.35
2023-03-06T17:38:58.638Z,3.20
2023-03-06T17:41:26.325Z,3.25
2023-03-06T17:43:58.181Z,3.70
2023-03-06T17:46:25.948Z,3.30
2023-03-06T17:48:54.708Z,3.58
2023-03-06T17:51:22.064Z,3.22
2023-03-06T17:53:49.711Z,3.38
2023-03-06T17:56:17.067Z,3.50
2023-03-06T17:58:44.966Z,3.45
2023-03-06T18:01:20.908Z,3.55
2023-03-06T18:03:50.249Z,3.75
2023-03-06T18:06:18.756Z,3.20
2023-03-06T18:08:46.826Z,3.35
2023-03-06T18:11:14.730Z,3.10
2023-03-06T18:13:44.908Z,3.42
2023-03-06T18:16:14.510Z,3.40
2023-03-06T18:18:42.280Z,2.92
2023-03-06T18:21:12.704Z,3.60
2023-03-06T18:23:41.609Z,3.13
2023-03-06T18:26:18.601Z,3.25
2023-03-06T18:28:48.680Z,3.38
2023-03-06T18:31:17.137Z,3.70
2023-03-06T18:33:47.629Z,3.30
2023-03-06T18:36:15.881Z,3.35
2023-03-06T18:38:45.441Z,3.25
2023-03-06T18:41:13.513Z,3.25
2023-03-06T18:43:42.331Z,3.53
2023-03-06T18:46:10.090Z,3.35
2023-03-06T18:48:37.976Z,3.40
2023-03-06T18:51:10.404Z,3.38
2023-03-06T18:53:39.945Z,3.60
2023-03-06T18:56:10.550Z,3.30
2023-03-06T18:58:37.998Z,3.20
2023-03-06T19:01:07.255Z,3.40
2023-03-06T19:03:35.258Z,3.10
2023-03-06T19:06:09.270Z,3.70
2023-03-06T19:08:38.637Z,4.03
2023-03-06T19:11:08.453Z,4.10
2023-03-06T19:13:36.902Z,3.40
2023-03-06T19:16:05.444Z,3.42
2023-03-06T19:18:33.421Z,3.40
2023-03-06T19:21:11.765Z,3.50
2023-03-06T19:23:39.545Z,3.38
2023-03-06T19:26:07.682Z,3.45
2023-03-06T19:28:37.571Z,3.20
2023-03-06T19:31:13.381Z,3.63
2023-03-06T19:33:42.485Z,3.17
2023-03-06T19:36:12.287Z,3.63
2023-03-06T19:38:40.524Z,3.80
2023-03-06T19:41:13.590Z,3.53
2023-03-06T19:43:42.655Z,3.50
2023-03-06T19:46:13.901Z,3.35
2023-03-06T19:48:42.294Z,3.65
2023-03-06T19:51:10.712Z,3.67
2023-03-06T19:53:39.811Z,3.67
2023-03-06T19:56:08.556Z,3.50
2023-03-06T19:58:36.033Z,3.55
2023-03-06T20:01:09.935Z,4.00
2023-03-06T20:03:37.448Z,3.60
2023-03-06T20:06:09.163Z,4.10
2023-03-06T20:08:36.783Z,4.22
2023-03-06T20:11:04.598Z,4.07
2023-03-06T20:13:31.896Z,3.83
2023-03-06T20:16:02.879Z,4.10
2023-03-06T20:18:30.205Z,3.92
2023-03-06T20:21:02.276Z,4.13
2023-03-06T20:23:30.258Z,4.30
2023-03-06T20:26:09.658Z,3.95
2023-03-06T20:28:39.318Z,4.35
2023-03-06T20:31:11.642Z,4.20
2023-03-06T20:33:39.633Z,4.18
2023-03-06T20:36:16.008Z,4.28
2023-03-06T20:38:44.229Z,4.72
2023-03-06T20:41:20.397Z,4.35
2023-03-06T20:43:48.249Z,4.55
2023-03-06T20:46:16.374Z,4.28
2023-03-06T20:48:44.145Z,4.55
2023-03-06T20:51:14.616Z,4.28
2023-03-06T20:53:41.854Z,4.43
2023-03-06T20:56:13.827Z,5.00
2023-03-06T20:58:41.207Z,4.80
2023-03-06T21:01:08.907Z,4.65
2023-03-06T21:03:36.793Z,4.68
2023-03-06T21:06:05.653Z,4.55
2023-03-06T21:08:32.971Z,4.30
2023-03-06T21:11:00.483Z,4.35
2023-03-06T21:13:28.162Z,4.43
2023-03-06T21:15:55.735Z,4.20
2023-03-06T21:18:23.252Z,5.10
2023-03-06T21:20:50.914Z,4.53
2023-03-06T21:23:18.175Z,4.90
2023-03-06T21:25:50.245Z,4.38
2023-03-06T21:28:18.343Z,4.60
2023-03-06T21:30:46.219Z,5.30
2023-03-06T21:33:16.064Z,5.30
2023-03-06T21:35:45.424Z,4.82
2023-03-06T21:38:14.126Z,4.53
2023-03-06T21:40:42.647Z,4.90
2023-03-06T21:43:10.374Z,4.93
2023-03-06T21:45:38.088Z,4.78
2023-03-06T21:48:05.616Z,4.70
2023-03-06T21:50:33.547Z,4.80
2023-03-06T21:53:00.937Z,4.93
2023-03-06T21:55:28.541Z,4.95
2023-03-06T21:57:56.363Z,5.10
2023-03-06T22:00:25.658Z,5.00
2023-03-06T22:02:53.090Z,5.38
2023-03-06T22:05:20.694Z,4.88
2023-03-06T22:07:49.573Z,4.93
2023-03-06T22:10:17.273Z,5.30
2023-03-06T22:12:45.806Z,5.00
2023-03-06T22:15:13.321Z,4.68
2023-03-06T22:17:41.552Z,5.45
2023-03-06T22:20:09.948Z,4.65
2023-03-06T22:22:37.268Z,5.47
2023-03-06T22:25:05.149Z,5.20
2023-03-06T22:27:32.745Z,5.13
2023-03-06T22:30:00.723Z,5.30
2023-03-06T22:32:28.050Z,5.50
2023-03-06T22:34:55.639Z,5.18
2023-03-06T22:37:22.857Z,4.75
2023-03-06T22:39:50.362Z,5.30
2023-03-06T22:42:17.562Z,5.20
2023-03-06T22:44:45.199Z,5.00
2023-03-06T22:47:12.564Z,5.47
2023-03-06T22:49:40.208Z,5.20
2023-03-06T22:52:07.437Z,5.45
2023-03-06T22:54:34.925Z,4.82
2023-03-06T22:57:02.155Z,5.13
2023-03-06T22:59:29.707Z,5.20
2023-03-06T23:01:58.498Z,5.10
2023-03-06T23:04:26.066Z,5.70
2023-03-06T23:06:53.312Z,5.82
2023-03-06T23:09:22.346Z,5.85
2023-03-06T23:11:50.234Z,5.57
2023-03-06T23:14:19.503Z,6.40
2023-03-06T23:16:46.816Z,5.85
2023-03-06T23:19:14.379Z,5.82
2023-03-06T23:21:41.811Z,6.10
2023-03-06T23:24:09.500Z,6.10
2023-03-06T23:26:37.059Z,6.20
2023-03-06T23:29:04.591Z,5.85
2023-03-06T23:31:32.209Z,6.45
2023-03-06T23:34:02.141Z,6.53
2023-03-06T23:36:30.413Z,6.55
2023-03-06T23:38:58.713Z,6.68
2023-03-06T23:41:26.085Z,7.40
2023-03-06T23:43:55.278Z,6.78
2023-03-06T23:46:22.730Z,6.50
2023-03-06T23:48:50.535Z,7.07
2023-03-06T23:51:21.696Z,7.00
2023-03-06T23:53:55.704Z,7.35
2023-03-06T23:56:24.596Z,7.45
2023-03-06T23:58:52.405Z,7.13
